sensor_id;sensor_type;location;lat;lon;timestamp;P1;durP1;ratioP1;P2;durP2;ratioP2
32812;SDS011;19162;48.254;11.454;2023-03-14T00:00:22;0.47;;;0.40;;
32812;SDS011;19162;48.254;11.454;2023-03-14T00:03:22;0.30;;;0.30;;
32812;SDS011;19162;48.254;11.454;2023-03-14T00:06:22;0.40;;;0.20;;
32812;SDS011;19162;48.254;11.454;2023-03-14T00:09:23;0.20;;;0.20;;
32812;SDS011;19162;48.254;11.454;2023-03-14T00:12:23;0.87;;;0.40;;
32812;SDS011;19162;48.254;11.454;2023-03-14T00:15:23;0.85;;;0.55;;
32812;SDS011;19162;48.254;11.454;2023-03-14T00:18:23;0.60;;;0.40;;
32812;SDS011;19162;48.254;11.454;2023-03-14T00:21:24;0.40;;;0.40;;
32812;SDS011;19162;48.254;11.454;2023-03-14T00:24:24;0.40;;;0.30;;
32812;SDS011;19162;48.254;11.454;2023-03-14T00:27:24;0.22;;;0.22;;
32812;SDS011;19162;48.254;11.454;2023-03-14T00:30:24;0.30;;;0.23;;
32812;SDS011;19162;48.254;11.454;2023-03-14T00:33:25;0.82;;;0.20;;
32812;SDS011;19162;48.254;11.454;2023-03-14T00:36:25;0.50;;;0.30;;
32812;SDS011;19162;48.254;11.454;2023-03-14T00:39:25;0.32;;;0.30;;
32812;SDS011;19162;48.254;11.454;2023-03-14T00:42:25;0.83;;;0.30;;
32812;SDS011;19162;48.254;11.454;2023-03-14T00:45:25;0.45;;;0.40;;
32812;SDS011;19162;48.254;11.454;2023-03-14T00:48:26;0.73;;;0.70;;
32812;SDS011;19162;48.254;11.454;2023-03-14T00:51:26;0.63;;;0.60;;
32812;SDS011;19162;48.254;11.454;2023-03-14T00:54:26;1.63;;;0.50;;
32812;SDS011;19162;48.254;11.454;2023-03-14T00:57:26;0.80;;;0.50;;
32812;SDS011;19162;48.254;11.454;2023-03-14T01:00:26;1.33;;;0.50;;
32812;SDS011;19162;48.254;11.454;2023-03-14T01:03:27;0.60;;;0.60;;
32812;SDS011;19162;48.254;11.454;2023-03-14T01:06:27;0.50;;;0.50;;
32812;SDS011;19162;48.254;11.454;2023-03-14T01:09:28;2.33;;;0.35;;
32812;SDS011;19162;48.254;11.454;2023-03-14T01:12:28;0.63;;;0.63;;
32812;SDS011;19162;48.254;11.454;2023-03-14T01:15:28;0.98;;;0.43;;
32812;SDS011;19162;48.254;11.454;2023-03-14T01:18:28;0.55;;;0.43;;
32812;SDS011;19162;48.254;11.454;2023-03-14T01:21:30;0.85;;;0.50;;
32812;SDS011;19162;48.254;11.454;2023-03-14T01:24:30;0.70;;;0.30;;
32812;SDS011;19162;48.254;11.454;2023-03-14T01:27:31;1.65;;;0.88;;
32812;SDS011;19162;48.254;11.454;2023-03-14T01:30:31;0.85;;;0.50;;
32812;SDS011;19162;48.254;11.454;2023-03-14T01:33:31;1.52;;;0.40;;
32812;SDS011;19162;48.254;11.454;2023-03-14T01:36:31;1.23;;;0.40;;
32812;SDS011;19162;48.254;11.454;2023-03-14T01:39:31;0.60;;;0.50;;
32812;SDS011;19162;48.254;11.454;2023-03-14T01:42:32;0.82;;;0.30;;
32812;SDS011;19162;48.254;11.454;2023-03-14T01:49:02;0.30;;;0.30;;
32812;SDS011;19162;48.254;11.454;2023-03-14T01:52:07;1.95;;;0.57;;
32812;SDS011;19162;48.254;11.454;2023-03-14T01:55:12;1.63;;;0.63;;
32812;SDS011;19162;48.254;11.454;2023-03-14T01:58:12;2.50;;;0.47;;
32812;SDS011;19162;48.254;11.454;2023-03-14T02:01:14;0.30;;;0.30;;
32812;SDS011;19162;48.254;11.454;2023-03-14T02:04:15;0.70;;;0.43;;
32812;SDS011;19162;48.254;11.454;2023-03-14T02:07:18;1.02;;;0.63;;
32812;SDS011;19162;48.254;11.454;2023-03-14T02:10:20;1.17;;;0.60;;
32812;SDS011;19162;48.254;11.454;2023-03-14T02:13:21;1.08;;;0.50;;
32812;SDS011;19162;48.254;11.454;2023-03-14T02:16:21;1.48;;;0.47;;
32812;SDS011;19162;48.254;11.454;2023-03-14T02:19:25;0.47;;;0.47;;
32812;SDS011;19162;48.254;11.454;2023-03-14T02:22:27;1.25;;;0.65;;
32812;SDS011;19162;48.254;11.454;2023-03-14T02:28:27;2.57;;;0.40;;
32812;SDS011;19162;48.254;11.454;2023-03-14T02:31:28;1.10;;;0.40;;
32812;SDS011;19162;48.254;11.454;2023-03-14T02:34:28;0.43;;;0.30;;
32812;SDS011;19162;48.254;11.454;2023-03-14T02:37:32;1.27;;;0.25;;
32812;SDS011;19162;48.254;11.454;2023-03-14T02:40:34;0.32;;;0.20;;
32812;SDS011;19162;48.254;11.454;2023-03-14T02:43:34;0.30;;;0.20;;
32812;SDS011;19162;48.254;11.454;2023-03-14T02:46:34;0.57;;;0.20;;
32812;SDS011;19162;48.254;11.454;2023-03-14T02:49:35;0.50;;;0.40;;
32812;SDS011;19162;48.254;11.454;2023-03-14T02:52:35;2.15;;;0.30;;
32812;SDS011;19162;48.254;11.454;2023-03-14T02:55:35;0.40;;;0.20;;
32812;SDS011;19162;48.254;11.454;2023-03-14T02:58:36;0.40;;;0.30;;
32812;SDS011;19162;48.254;11.454;2023-03-14T03:01:36;0.40;;;0.30;;
32812;SDS011;19162;48.254;11.454;2023-03-14T03:04:36;0.93;;;0.67;;
32812;SDS011;19162;48.254;11.454;2023-03-14T03:07:36;0.60;;;0.40;;
32812;SDS011;19162;48.254;11.454;2023-03-14T03:10:37;0.32;;;0.20;;
32812;SDS011;19162;48.254;11.454;2023-03-14T03:13:37;0.65;;;0.40;;
32812;SDS011;19162;48.254;11.454;2023-03-14T03:16:37;0.30;;;0.30;;
32812;SDS011;19162;48.254;11.454;2023-03-14T03:19:37;0.20;;;0.20;;
32812;SDS011;19162;48.254;11.454;2023-03-14T03:22:37;1.17;;;0.47;;
32812;SDS011;19162;48.254;11.454;2023-03-14T03:25:38;0.33;;;0.23;;
32812;SDS011;19162;48.254;11.454;2023-03-14T03:28:38;0.20;;;0.20;;
32812;SDS011;19162;48.254;11.454;2023-03-14T03:31:38;1.65;;;0.30;;
32812;SDS011;19162;48.254;11.454;2023-03-14T03:34:38;0.33;;;0.20;;
32812;SDS011;19162;48.254;11.454;2023-03-14T03:37:39;0.17;;;0.17;;
32812;SDS011;19162;48.254;11.454;2023-03-14T03:40:39;0.75;;;0.30;;
32812;SDS011;19162;48.254;11.454;2023-03-14T03:43:39;0.50;;;0.30;;
32812;SDS011;19162;48.254;11.454;2023-03-14T03:46:39;0.20;;;0.17;;
32812;SDS011;19162;48.254;11.454;2023-03-14T03:49:40;0.10;;;0.10;;
32812;SDS011;19162;48.254;11.454;2023-03-14T03:52:40;0.20;;;0.20;;
32812;SDS011;19162;48.254;11.454;2023-03-14T03:55:41;0.20;;;0.10;;
32812;SDS011;19162;48.254;11.454;2023-03-14T03:58:42;0.10;;;0.10;;
32812;SDS011;19162;48.254;11.454;2023-03-14T04:01:42;0.20;;;0.20;;
32812;SDS011;19162;48.254;11.454;2023-03-14T04:04:42;1.50;;;0.20;;
32812;SDS011;19162;48.254;11.454;2023-03-14T04:07:42;0.20;;;0.20;;
32812;SDS011;19162;48.254;11.454;2023-03-14T04:10:43;0.35;;;0.28;;
32812;SDS011;19162;48.254;11.454;2023-03-14T04:13:43;0.13;;;0.13;;
32812;SDS011;19162;48.254;11.454;2023-03-14T04:16:43;0.30;;;0.13;;
32812;SDS011;19162;48.254;11.454;2023-03-14T04:19:43;0.20;;;0.20;;
32812;SDS011;19162;48.254;11.454;2023-03-14T04:22:43;0.47;;;0.23;;
32812;SDS011;19162;48.254;11.454;2023-03-14T04:25:43;0.20;;;0.10;;
32812;SDS011;19162;48.254;11.454;2023-03-14T04:28:44;0.52;;;0.20;;
32812;SDS011;19162;48.254;11.454;2023-03-14T04:31:44;0.50;;;0.20;;
32812;SDS011;19162;48.254;11.454;2023-03-14T04:34:44;0.10;;;0.10;;
32812;SDS011;19162;48.254;11.454;2023-03-14T04:37:44;0.38;;;0.20;;
32812;SDS011;19162;48.254;11.454;2023-03-14T04:40:48;0.47;;;0.17;;
32812;SDS011;19162;48.254;11.454;2023-03-14T04:43:49;0.70;;;0.20;;
32812;SDS011;19162;48.254;11.454;2023-03-14T04:46:49;0.10;;;0.10;;
32812;SDS011;19162;48.254;11.454;2023-03-14T04:49:49;0.10;;;0.10;;
32812;SDS011;19162;48.254;11.454;2023-03-14T04:52:49;1.73;;;0.20;;
32812;SDS011;19162;48.254;11.454;2023-03-14T04:55:50;0.40;;;0.40;;
32812;SDS011;19162;48.254;11.454;2023-03-14T04:58:50;0.10;;;0.10;;
32812;SDS011;19162;48.254;11.454;2023-03-14T05:01:51;0.17;;;0.10;;
32812;SDS011;19162;48.254;11.454;2023-03-14T05:04:51;0.40;;;0.40;;
32812;SDS011;19162;48.254;11.454;2023-03-14T05:07:51;0.47;;;0.30;;
32812;SDS011;19162;48.254;11.454;2023-03-14T05:10:52;0.10;;;0.10;;
32812;SDS011;19162;48.254;11.454;2023-03-14T05:13:53;0.52;;;0.20;;
32812;SDS011;19162;48.254;11.454;2023-03-14T05:16:53;0.17;;;0.17;;
32812;SDS011;19162;48.254;11.454;2023-03-14T05:19:53;0.97;;;0.27;;
32812;SDS011;19162;48.254;11.454;2023-03-14T05:22:53;0.38;;;0.10;;
32812;SDS011;19162;48.254;11.454;2023-03-14T05:25:53;0.17;;;0.17;;
32812;SDS011;19162;48.254;11.454;2023-03-14T05:28:54;0.17;;;0.10;;
32812;SDS011;19162;48.254;11.454;2023-03-14T05:31:54;0.20;;;0.20;;
32812;SDS011;19162;48.254;11.454;2023-03-14T05:34:54;0.20;;;0.10;;
32812;SDS011;19162;48.254;11.454;2023-03-14T05:37:58;0.10;;;0.10;;
32812;SDS011;19162;48.254;11.454;2023-03-14T05:40:58;0.23;;;0.20;;
32812;SDS011;19162;48.254;11.454;2023-03-14T05:43:58;0.10;;;0.10;;
32812;SDS011;19162;48.254;11.454;2023-03-14T05:46:58;1.40;;;0.27;;
32812;SDS011;19162;48.254;11.454;2023-03-14T05:49:58;0.30;;;0.17;;
32812;SDS011;19162;48.254;11.454;2023-03-14T05:52:59;0.20;;;0.20;;
32812;SDS011;19162;48.254;11.454;2023-03-14T05:55:59;0.10;;;0.10;;
32812;SDS011;19162;48.254;11.454;2023-03-14T05:58:59;0.20;;;0.20;;
32812;SDS011;19162;48.254;11.454;2023-03-14T06:02:02;0.50;;;0.20;;
32812;SDS011;19162;48.254;11.454;2023-03-14T06:05:02;0.47;;;0.20;;
32812;SDS011;19162;48.254;11.454;2023-03-14T06:08:02;0.13;;;0.13;;
32812;SDS011;19162;48.254;11.454;2023-03-14T06:11:03;0.60;;;0.30;;
32812;SDS011;19162;48.254;11.454;2023-03-14T06:14:03;0.28;;;0.20;;
32812;SDS011;19162;48.254;11.454;2023-03-14T06:17:03;0.25;;;0.20;;
32812;SDS011;19162;48.254;11.454;2023-03-14T06:20:04;0.20;;;0.20;;
32812;SDS011;19162;48.254;11.454;2023-03-14T06:23:05;0.32;;;0.32;;
32812;SDS011;19162;48.254;11.454;2023-03-14T06:26:05;0.20;;;0.20;;
32812;SDS011;19162;48.254;11.454;2023-03-14T06:29:06;0.32;;;0.30;;
32812;SDS011;19162;48.254;11.454;2023-03-14T06:32:06;0.28;;;0.28;;
32812;SDS011;19162;48.254;11.454;2023-03-14T06:35:06;0.10;;;0.10;;
32812;SDS011;19162;48.254;11.454;2023-03-14T06:38:06;0.52;;;0.52;;
32812;SDS011;19162;48.254;11.454;2023-03-14T06:41:07;1.38;;;1.00;;
32812;SDS011;19162;48.254;11.454;2023-03-14T06:44:07;1.10;;;1.00;;
32812;SDS011;19162;48.254;11.454;2023-03-14T06:47:07;2.30;;;0.50;;
32812;SDS011;19162;48.254;11.454;2023-03-14T06:50:08;0.52;;;0.52;;
32812;SDS011;19162;48.254;11.454;2023-03-14T06:53:08;0.52;;;0.52;;
32812;SDS011;19162;48.254;11.454;2023-03-14T06:56:08;0.55;;;0.55;;
32812;SDS011;19162;48.254;11.454;2023-03-14T06:59:09;0.57;;;0.57;;
32812;SDS011;19162;48.254;11.454;2023-03-14T07:02:12;0.65;;;0.65;;
32812;SDS011;19162;48.254;11.454;2023-03-14T07:05:13;0.55;;;0.40;;
32812;SDS011;19162;48.254;11.454;2023-03-14T07:08:13;0.57;;;0.50;;
32812;SDS011;19162;48.254;11.454;2023-03-14T07:11:13;0.73;;;0.50;;
32812;SDS011;19162;48.254;11.454;2023-03-14T07:14:13;0.80;;;0.50;;
32812;SDS011;19162;48.254;11.454;2023-03-14T07:17:14;0.55;;;0.40;;
32812;SDS011;19162;48.254;11.454;2023-03-14T07:20:14;0.80;;;0.73;;
32812;SDS011;19162;48.254;11.454;2023-03-14T07:23:14;0.75;;;0.47;;
32812;SDS011;19162;48.254;11.454;2023-03-14T07:26:14;0.87;;;0.57;;
32812;SDS011;19162;48.254;11.454;2023-03-14T07:29:15;0.23;;;0.23;;
32812;SDS011;19162;48.254;11.454;2023-03-14T07:32:15;2.33;;;0.30;;
32812;SDS011;19162;48.254;11.454;2023-03-14T07:35:15;1.37;;;0.60;;
32812;SDS011;19162;48.254;11.454;2023-03-14T07:38:16;0.80;;;0.60;;
32812;SDS011;19162;48.254;11.454;2023-03-14T07:41:16;2.00;;;0.68;;
32812;SDS011;19162;48.254;11.454;2023-03-14T07:44:16;0.63;;;0.50;;
32812;SDS011;19162;48.254;11.454;2023-03-14T07:47:16;0.40;;;0.30;;
32812;SDS011;19162;48.254;11.454;2023-03-14T07:50:16;0.60;;;0.30;;
32812;SDS011;19162;48.254;11.454;2023-03-14T07:53:17;0.50;;;0.30;;
32812;SDS011;19162;48.254;11.454;2023-03-14T07:56:17;3.20;;;0.40;;
32812;SDS011;19162;48.254;11.454;2023-03-14T07:59:18;0.40;;;0.40;;
32812;SDS011;19162;48.254;11.454;2023-03-14T08:02:18;1.42;;;0.22;;
32812;SDS011;19162;48.254;11.454;2023-03-14T08:05:22;0.77;;;0.30;;
32812;SDS011;19162;48.254;11.454;2023-03-14T08:08:22;0.25;;;0.25;;
32812;SDS011;19162;48.254;11.454;2023-03-14T08:11:22;2.73;;;0.50;;
32812;SDS011;19162;48.254;11.454;2023-03-14T08:14:22;0.30;;;0.30;;
32812;SDS011;19162;48.254;11.454;2023-03-14T08:17:23;1.30;;;0.32;;
32812;SDS011;19162;48.254;11.454;2023-03-14T08:20:25;0.50;;;0.20;;
32812;SDS011;19162;48.254;11.454;2023-03-14T08:23:25;0.98;;;0.57;;
32812;SDS011;19162;48.254;11.454;2023-03-14T08:26:25;0.83;;;0.30;;
32812;SDS011;19162;48.254;11.454;2023-03-14T08:29:26;1.20;;;0.32;;
32812;SDS011;19162;48.254;11.454;2023-03-14T08:32:26;0.60;;;0.40;;
32812;SDS011;19162;48.254;11.454;2023-03-14T08:35:27;0.90;;;0.43;;
32812;SDS011;19162;48.254;11.454;2023-03-14T08:38:27;0.70;;;0.40;;
32812;SDS011;19162;48.254;11.454;2023-03-14T08:41:27;0.40;;;0.40;;
32812;SDS011;19162;48.254;11.454;2023-03-14T08:44:27;0.32;;;0.32;;
32812;SDS011;19162;48.254;11.454;2023-03-14T08:47:27;0.55;;;0.32;;
32812;SDS011;19162;48.254;11.454;2023-03-14T08:50:28;0.63;;;0.60;;
32812;SDS011;19162;48.254;11.454;2023-03-14T08:53:28;2.20;;;0.52;;
32812;SDS011;19162;48.254;11.454;2023-03-14T08:56:28;1.00;;;0.43;;
32812;SDS011;19162;48.254;11.454;2023-03-14T08:59:28;2.65;;;0.50;;
32812;SDS011;19162;48.254;11.454;2023-03-14T09:02:28;0.55;;;0.50;;
32812;SDS011;19162;48.254;11.454;2023-03-14T09:05:29;0.67;;;0.50;;
32812;SDS011;19162;48.254;11.454;2023-03-14T09:08:32;0.50;;;0.40;;
32812;SDS011;19162;48.254;11.454;2023-03-14T09:11:32;1.60;;;0.40;;
32812;SDS011;19162;48.254;11.454;2023-03-14T09:14:32;0.52;;;0.40;;
32812;SDS011;19162;48.254;11.454;2023-03-14T09:17:32;0.93;;;0.47;;
32812;SDS011;19162;48.254;11.454;2023-03-14T09:20:33;1.53;;;0.40;;
32812;SDS011;19162;48.254;11.454;2023-03-14T09:23:33;0.70;;;0.47;;
32812;SDS011;19162;48.254;11.454;2023-03-14T09:26:33;0.77;;;0.40;;
32812;SDS011;19162;48.254;11.454;2023-03-14T09:29:33;0.30;;;0.20;;
32812;SDS011;19162;48.254;11.454;2023-03-14T09:32:34;0.60;;;0.43;;
32812;SDS011;19162;48.254;11.454;2023-03-14T09:35:34;0.17;;;0.10;;
32812;SDS011;19162;48.254;11.454;2023-03-14T09:38:34;0.83;;;0.50;;
32812;SDS011;19162;48.254;11.454;2023-03-14T09:41:35;1.85;;;0.45;;
32812;SDS011;19162;48.254;11.454;2023-03-14T09:44:42;0.43;;;0.30;;
32812;SDS011;19162;48.254;11.454;2023-03-14T09:47:44;2.03;;;0.32;;
32812;SDS011;19162;48.254;11.454;2023-03-14T09:50:49;0.38;;;0.22;;
32812;SDS011;19162;48.254;11.454;2023-03-14T09:53:50;2.50;;;0.40;;
32812;SDS011;19162;48.254;11.454;2023-03-14T09:56:51;0.30;;;0.30;;
32812;SDS011;19162;48.254;11.454;2023-03-14T09:59:53;0.30;;;0.30;;
32812;SDS011;19162;48.254;11.454;2023-03-14T10:02:55;2.00;;;0.30;;
32812;SDS011;19162;48.254;11.454;2023-03-14T10:05:56;0.55;;;0.35;;
32812;SDS011;19162;48.254;11.454;2023-03-14T10:08:57;1.67;;;0.30;;
32812;SDS011;19162;48.254;11.454;2023-03-14T10:11:57;3.40;;;0.40;;
32812;SDS011;19162;48.254;11.454;2023-03-14T10:15:24;1.25;;;0.43;;
32812;SDS011;19162;48.254;11.454;2023-03-14T10:18:23;0.60;;;0.40;;
32812;SDS011;19162;48.254;11.454;2023-03-14T10:21:27;0.73;;;0.38;;
32812;SDS011;19162;48.254;11.454;2023-03-14T10:24:30;0.17;;;0.10;;
32812;SDS011;19162;48.254;11.454;2023-03-14T10:27:31;0.35;;;0.25;;
32812;SDS011;19162;48.254;11.454;2023-03-14T10:33:37;0.70;;;0.22;;
32812;SDS011;19162;48.254;11.454;2023-03-14T10:36:38;0.93;;;0.40;;
32812;SDS011;19162;48.254;11.454;2023-03-14T10:42:44;0.38;;;0.38;;
32812;SDS011;19162;48.254;11.454;2023-03-14T10:45:57;0.88;;;0.50;;
32812;SDS011;19162;48.254;11.454;2023-03-14T10:48:58;1.15;;;0.30;;
32812;SDS011;19162;48.254;11.454;2023-03-14T10:52:02;2.67;;;0.40;;
32812;SDS011;19162;48.254;11.454;2023-03-14T10:55:12;0.88;;;0.35;;
32812;SDS011;19162;48.254;11.454;2023-03-14T10:58:26;3.00;;;0.20;;
32812;SDS011;19162;48.254;11.454;2023-03-14T11:01:40;0.57;;;0.40;;
32812;SDS011;19162;48.254;11.454;2023-03-14T11:07:51;0.52;;;0.52;;
32812;SDS011;19162;48.254;11.454;2023-03-14T11:10:57;0.32;;;0.30;;
32812;SDS011;19162;48.254;11.454;2023-03-14T11:14:13;1.42;;;0.30;;
32812;SDS011;19162;48.254;11.454;2023-03-14T11:17:19;0.38;;;0.30;;
32812;SDS011;19162;48.254;11.454;2023-03-14T11:23:25;0.40;;;0.30;;
32812;SDS011;19162;48.254;11.454;2023-03-14T11:26:33;1.02;;;0.20;;
32812;SDS011;19162;48.254;11.454;2023-03-14T11:30:23;1.08;;;0.50;;
32812;SDS011;19162;48.254;11.454;2023-03-14T11:33:13;2.20;;;0.40;;
32812;SDS011;19162;48.254;11.454;2023-03-14T11:36:15;0.20;;;0.20;;
32812;SDS011;19162;48.254;11.454;2023-03-14T11:39:18;0.20;;;0.20;;
32812;SDS011;19162;48.254;11.454;2023-03-14T11:42:19;0.70;;;0.35;;
32812;SDS011;19162;48.254;11.454;2023-03-14T11:45:22;0.85;;;0.47;;
32812;SDS011;19162;48.254;11.454;2023-03-14T11:48:49;0.13;;;0.10;;
32812;SDS011;19162;48.254;11.454;2023-03-14T11:51:46;2.17;;;0.30;;
32812;SDS011;19162;48.254;11.454;2023-03-14T11:54:53;0.40;;;0.30;;
32812;SDS011;19162;48.254;11.454;2023-03-14T11:58:00;1.08;;;0.30;;
32812;SDS011;19162;48.254;11.454;2023-03-14T12:01:03;0.75;;;0.28;;
32812;SDS011;19162;48.254;11.454;2023-03-14T12:04:14;0.47;;;0.40;;
32812;SDS011;19162;48.254;11.454;2023-03-14T12:07:19;0.30;;;0.15;;
32812;SDS011;19162;48.254;11.454;2023-03-14T12:10:20;0.77;;;0.20;;
32812;SDS011;19162;48.254;11.454;2023-03-14T12:13:21;0.30;;;0.30;;
32812;SDS011;19162;48.254;11.454;2023-03-14T12:19:26;0.88;;;0.30;;
32812;SDS011;19162;48.254;11.454;2023-03-14T12:22:27;2.10;;;0.40;;
32812;SDS011;19162;48.254;11.454;2023-03-14T12:25:30;0.75;;;0.20;;
32812;SDS011;19162;48.254;11.454;2023-03-14T12:28:31;0.28;;;0.28;;
32812;SDS011;19162;48.254;11.454;2023-03-14T12:34:32;0.40;;;0.40;;
32812;SDS011;19162;48.254;11.454;2023-03-14T12:37:36;0.32;;;0.20;;
32812;SDS011;19162;48.254;11.454;2023-03-14T12:40:42;1.02;;;0.32;;
32812;SDS011;19162;48.254;11.454;2023-03-14T12:43:47;2.08;;;0.20;;
32812;SDS011;19162;48.254;11.454;2023-03-14T12:46:47;0.40;;;0.40;;
32812;SDS011;19162;48.254;11.454;2023-03-14T12:49:51;0.50;;;0.20;;
32812;SDS011;19162;48.254;11.454;2023-03-14T12:55:58;0.40;;;0.40;;
32812;SDS011;19162;48.254;11.454;2023-03-14T12:59:14;1.85;;;0.50;;
32812;SDS011;19162;48.254;11.454;2023-03-14T13:02:23;2.40;;;0.40;;
32812;SDS011;19162;48.254;11.454;2023-03-14T13:05:24;1.75;;;0.43;;
32812;SDS011;19162;48.254;11.454;2023-03-14T13:11:34;0.55;;;0.40;;
32812;SDS011;19162;48.254;11.454;2023-03-14T13:14:34;0.20;;;0.20;;
32812;SDS011;19162;48.254;11.454;2023-03-14T13:17:34;0.20;;;0.20;;
32812;SDS011;19162;48.254;11.454;2023-03-14T13:20:36;1.75;;;0.30;;
32812;SDS011;19162;48.254;11.454;2023-03-14T13:23:37;0.55;;;0.32;;
32812;SDS011;19162;48.254;11.454;2023-03-14T13:26:41;0.20;;;0.20;;
32812;SDS011;19162;48.254;11.454;2023-03-14T13:29:44;0.20;;;0.20;;
32812;SDS011;19162;48.254;11.454;2023-03-14T13:32:45;0.75;;;0.32;;
32812;SDS011;19162;48.254;11.454;2023-03-14T13:35:48;0.20;;;0.20;;
32812;SDS011;19162;48.254;11.454;2023-03-14T13:38:54;0.10;;;0.10;;
32812;SDS011;19162;48.254;11.454;2023-03-14T13:41:58;0.20;;;0.20;;
32812;SDS011;19162;48.254;11.454;2023-03-14T13:44:58;0.38;;;0.25;;
32812;SDS011;19162;48.254;11.454;2023-03-14T13:47:59;0.25;;;0.20;;
32812;SDS011;19162;48.254;11.454;2023-03-14T13:51:03;0.15;;;0.15;;
32812;SDS011;19162;48.254;11.454;2023-03-14T13:54:11;0.80;;;0.30;;
32812;SDS011;19162;48.254;11.454;2023-03-14T13:57:12;0.38;;;0.20;;
32812;SDS011;19162;48.254;11.454;2023-03-14T14:00:23;0.32;;;0.32;;
32812;SDS011;19162;48.254;11.454;2023-03-14T14:03:27;0.68;;;0.22;;
32812;SDS011;19162;48.254;11.454;2023-03-14T14:06:37;0.30;;;0.30;;
32812;SDS011;19162;48.254;11.454;2023-03-14T14:09:39;0.28;;;0.28;;
32812;SDS011;19162;48.254;11.454;2023-03-14T14:12:42;0.20;;;0.13;;
32812;SDS011;19162;48.254;11.454;2023-03-14T14:15:44;0.57;;;0.30;;
32812;SDS011;19162;48.254;11.454;2023-03-14T14:18:45;0.20;;;0.20;;
32812;SDS011;19162;48.254;11.454;2023-03-14T14:21:45;0.60;;;0.30;;
32812;SDS011;19162;48.254;11.454;2023-03-14T14:24:45;0.32;;;0.30;;
32812;SDS011;19162;48.254;11.454;2023-03-14T14:27:47;0.30;;;0.30;;
32812;SDS011;19162;48.254;11.454;2023-03-14T14:30:58;0.98;;;0.30;;
32812;SDS011;19162;48.254;11.454;2023-03-14T14:33:59;0.20;;;0.20;;
32812;SDS011;19162;48.254;11.454;2023-03-14T14:36:59;0.20;;;0.20;;
32812;SDS011;19162;48.254;11.454;2023-03-14T14:43:10;0.30;;;0.30;;
32812;SDS011;19162;48.254;11.454;2023-03-14T14:46:13;0.65;;;0.22;;
32812;SDS011;19162;48.254;11.454;2023-03-14T14:49:18;0.57;;;0.30;;
32812;SDS011;19162;48.254;11.454;2023-03-14T14:52:19;0.20;;;0.20;;
32812;SDS011;19162;48.254;11.454;2023-03-14T14:55:20;0.25;;;0.20;;
32812;SDS011;19162;48.254;11.454;2023-03-14T14:58:23;0.30;;;0.30;;
32812;SDS011;19162;48.254;11.454;2023-03-14T15:01:24;0.20;;;0.20;;
32812;SDS011;19162;48.254;11.454;2023-03-14T15:04:26;0.20;;;0.20;;
32812;SDS011;19162;48.254;11.454;2023-03-14T15:07:27;0.40;;;0.35;;
32812;SDS011;19162;48.254;11.454;2023-03-14T15:10:27;3.00;;;0.60;;
32812;SDS011;19162;48.254;11.454;2023-03-14T15:13:28;0.20;;;0.20;;
32812;SDS011;19162;48.254;11.454;2023-03-14T15:16:28;0.57;;;0.57;;
32812;SDS011;19162;48.254;11.454;2023-03-14T15:19:29;2.05;;;0.50;;
32812;SDS011;19162;48.254;11.454;2023-03-14T15:22:32;0.50;;;0.50;;
32812;SDS011;19162;48.254;11.454;2023-03-14T15:25:32;2.00;;;0.40;;
32812;SDS011;19162;48.254;11.454;2023-03-14T15:28:32;1.23;;;0.70;;
32812;SDS011;19162;48.254;11.454;2023-03-14T15:31:33;0.82;;;0.40;;
32812;SDS011;19162;48.254;11.454;2023-03-14T15:34:33;0.80;;;0.60;;
32812;SDS011;19162;48.254;11.454;2023-03-14T15:37:33;1.02;;;0.50;;
32812;SDS011;19162;48.254;11.454;2023-03-14T15:40:34;0.40;;;0.40;;
32812;SDS011;19162;48.254;11.454;2023-03-14T15:43:34;1.38;;;0.60;;
32812;SDS011;19162;48.254;11.454;2023-03-14T15:46:34;0.80;;;0.40;;
32812;SDS011;19162;48.254;11.454;2023-03-14T15:49:34;0.82;;;0.80;;
32812;SDS011;19162;48.254;11.454;2023-03-14T15:52:35;0.50;;;0.50;;
32812;SDS011;19162;48.254;11.454;2023-03-14T15:55:35;1.90;;;0.70;;
32812;SDS011;19162;48.254;11.454;2023-03-14T15:58:35;0.73;;;0.55;;
32812;SDS011;19162;48.254;11.454;2023-03-14T16:01:35;0.73;;;0.43;;
32812;SDS011;19162;48.254;11.454;2023-03-14T16:04:35;2.00;;;0.70;;
32812;SDS011;19162;48.254;11.454;2023-03-14T16:07:36;0.57;;;0.47;;
32812;SDS011;19162;48.254;11.454;2023-03-14T16:10:36;0.60;;;0.60;;
32812;SDS011;19162;48.254;11.454;2023-03-14T16:13:38;1.05;;;0.80;;
32812;SDS011;19162;48.254;11.454;2023-03-14T16:16:38;1.67;;;0.80;;
32812;SDS011;19162;48.254;11.454;2023-03-14T16:19:38;2.10;;;1.63;;
32812;SDS011;19162;48.254;11.454;2023-03-14T16:22:39;1.40;;;1.30;;
32812;SDS011;19162;48.254;11.454;2023-03-14T16:25:39;2.00;;;1.00;;
32812;SDS011;19162;48.254;11.454;2023-03-14T16:28:39;2.50;;;1.30;;
32812;SDS011;19162;48.254;11.454;2023-03-14T16:31:39;2.45;;;2.08;;
32812;SDS011;19162;48.254;11.454;2023-03-14T16:34:41;1.58;;;1.35;;
32812;SDS011;19162;48.254;11.454;2023-03-14T16:37:42;3.00;;;2.80;;
32812;SDS011;19162;48.254;11.454;2023-03-14T16:40:42;2.50;;;2.30;;
32812;SDS011;19162;48.254;11.454;2023-03-14T16:43:42;1.92;;;1.27;;
32812;SDS011;19162;48.254;11.454;2023-03-14T16:46:42;1.50;;;1.40;;
32812;SDS011;19162;48.254;11.454;2023-03-14T16:49:43;3.97;;;1.40;;
32812;SDS011;19162;48.254;11.454;2023-03-14T16:52:43;1.37;;;0.80;;
32812;SDS011;19162;48.254;11.454;2023-03-14T16:55:46;1.50;;;0.88;;
32812;SDS011;19162;48.254;11.454;2023-03-14T16:58:46;1.13;;;0.70;;
32812;SDS011;19162;48.254;11.454;2023-03-14T17:01:46;2.25;;;1.17;;
32812;SDS011;19162;48.254;11.454;2023-03-14T17:04:46;2.05;;;0.88;;
32812;SDS011;19162;48.254;11.454;2023-03-14T17:07:47;2.40;;;0.97;;
32812;SDS011;19162;48.254;11.454;2023-03-14T17:10:47;1.50;;;1.08;;
32812;SDS011;19162;48.254;11.454;2023-03-14T17:13:47;1.25;;;0.80;;
32812;SDS011;19162;48.254;11.454;2023-03-14T17:16:47;1.80;;;1.13;;
32812;SDS011;19162;48.254;11.454;2023-03-14T17:19:49;1.50;;;0.80;;
32812;SDS011;19162;48.254;11.454;2023-03-14T17:22:50;2.35;;;0.80;;
32812;SDS011;19162;48.254;11.454;2023-03-14T17:25:50;1.63;;;1.10;;
32812;SDS011;19162;48.254;11.454;2023-03-14T17:28:50;1.98;;;0.82;;
32812;SDS011;19162;48.254;11.454;2023-03-14T17:31:51;1.35;;;0.80;;
32812;SDS011;19162;48.254;11.454;2023-03-14T17:34:51;2.05;;;1.90;;
32812;SDS011;19162;48.254;11.454;2023-03-14T17:37:52;2.25;;;1.05;;
32812;SDS011;19162;48.254;11.454;2023-03-14T17:40:52;2.53;;;1.70;;
32812;SDS011;19162;48.254;11.454;2023-03-14T17:43:52;1.33;;;0.90;;
32812;SDS011;19162;48.254;11.454;2023-03-14T17:46:52;2.70;;;1.10;;
32812;SDS011;19162;48.254;11.454;2023-03-14T17:49:54;1.65;;;1.23;;
32812;SDS011;19162;48.254;11.454;2023-03-14T17:52:54;2.13;;;1.15;;
32812;SDS011;19162;48.254;11.454;2023-03-14T17:55:54;1.40;;;0.93;;
32812;SDS011;19162;48.254;11.454;2023-03-14T17:58:55;2.50;;;0.95;;
32812;SDS011;19162;48.254;11.454;2023-03-14T18:01:55;2.28;;;1.00;;
32812;SDS011;19162;48.254;11.454;2023-03-14T18:04:56;1.00;;;0.90;;
32812;SDS011;19162;48.254;11.454;2023-03-14T18:07:56;3.08;;;1.20;;
32812;SDS011;19162;48.254;11.454;2023-03-14T18:10:57;1.10;;;1.00;;
32812;SDS011;19162;48.254;11.454;2023-03-14T18:13:57;2.35;;;1.33;;
32812;SDS011;19162;48.254;11.454;2023-03-14T18:17:00;2.75;;;1.25;;
32812;SDS011;19162;48.254;11.454;2023-03-14T18:20:00;2.67;;;2.00;;
32812;SDS011;19162;48.254;11.454;2023-03-14T18:23:00;1.48;;;0.85;;
32812;SDS011;19162;48.254;11.454;2023-03-14T18:26:01;1.47;;;1.10;;
32812;SDS011;19162;48.254;11.454;2023-03-14T18:29:01;1.48;;;1.08;;